createdAt,value
2022-09-15T00:00:16.916Z,24.47
2022-09-15T00:02:43.692Z,25.17
2022-09-15T00:05:10.370Z,24.87
2022-09-15T00:07:36.615Z,24.93
2022-09-15T00:10:04.173Z,23.63
2022-09-15T00:12:30.544Z,23.80
2022-09-15T00:14:56.868Z,23.47
2022-09-15T00:17:23.133Z,21.80
2022-09-15T00:19:49.521Z,21.20
2022-09-15T00:22:15.782Z,21.60
2022-09-15T00:24:42.079Z,21.83
2022-09-15T00:27:08.475Z,21.07
2022-09-15T00:29:35.756Z,20.30
2022-09-15T00:32:02.073Z,20.07
2022-09-15T00:34:28.293Z,20.63
2022-09-15T00:36:54.514Z,20.10
2022-09-15T00:39:20.833Z,20.07
2022-09-15T00:41:47.076Z,19.40
2022-09-15T00:44:16.316Z,21.03
2022-09-15T00:46:46.911Z,20.17
2022-09-15T00:49:32.300Z,18.90
2022-09-15T00:52:01.288Z,19.60
2022-09-15T00:54:35.672Z,19.70
2022-09-15T00:57:04.416Z,19.50
2022-09-15T00:59:31.993Z,19.27
2022-09-15T01:02:05.506Z,19.30
2022-09-15T01:04:32.130Z,19.93
2022-09-15T01:07:05.048Z,18.33
2022-09-15T01:09:38.505Z,19.30
2022-09-15T01:12:04.816Z,18.20
2022-09-15T01:14:31.387Z,18.23
2022-09-15T01:17:06.800Z,17.33
2022-09-15T01:19:51.724Z,17.73
2022-09-15T01:22:34.565Z,16.80
2022-09-15T01:25:08.576Z,16.37
2022-09-15T01:27:43.040Z,17.67
2022-09-15T01:30:12.496Z,17.50
2022-09-15T01:33:06.155Z,17.83
2022-09-15T01:35:50.301Z,17.43
2022-09-15T01:38:22.128Z,18.70
2022-09-15T01:40:52.529Z,18.77
2022-09-15T01:43:20.196Z,18.50
2022-09-15T01:45:48.024Z,19.33
2022-09-15T01:48:15.932Z,18.07
2022-09-15T01:50:47.055Z,18.37
2022-09-15T01:53:15.272Z,17.97
2022-09-15T01:55:44.095Z,18.30
2022-09-15T01:58:10.406Z,19.53
2022-09-15T02:00:38.351Z,19.10
2022-09-15T02:03:08.381Z,19.23
2022-09-15T02:05:41.602Z,19.00
2022-09-15T02:08:12.821Z,18.70
2022-09-15T02:11:08.261Z,18.40
2022-09-15T02:13:54.028Z,19.67
2022-09-15T02:16:21.767Z,19.40
2022-09-15T02:18:51.121Z,19.57
2022-09-15T02:21:20.000Z,18.27
2022-09-15T02:23:51.025Z,18.87
2022-09-15T02:26:20.598Z,19.37
2022-09-15T02:28:48.282Z,18.50
2022-09-15T02:31:16.050Z,18.13
2022-09-15T02:33:44.302Z,17.80
2022-09-15T02:36:13.677Z,17.70
2022-09-15T02:38:45.556Z,18.47
2022-09-15T02:41:13.154Z,17.07
2022-09-15T02:43:46.382Z,18.17
2022-09-15T02:46:13.214Z,17.80
2022-09-15T02:48:39.477Z,17.87
2022-09-15T02:51:05.811Z,18.83
2022-09-15T02:53:32.052Z,18.60
2022-09-15T02:55:58.768Z,18.43
2022-09-15T02:58:25.035Z,19.93
2022-09-15T03:00:51.904Z,18.43
2022-09-15T03:03:18.898Z,19.20
2022-09-15T03:05:45.113Z,19.80
2022-09-15T03:08:11.363Z,19.40
2022-09-15T03:10:37.613Z,18.63
2022-09-15T03:13:03.864Z,19.23
2022-09-15T03:15:30.161Z,18.57
2022-09-15T03:17:56.678Z,18.33
2022-09-15T03:20:24.016Z,17.23
2022-09-15T03:22:50.557Z,17.03
2022-09-15T03:25:17.594Z,17.37
2022-09-15T03:27:43.830Z,16.97
2022-09-15T03:30:11.100Z,17.53
2022-09-15T03:32:37.345Z,17.10
2022-09-15T03:35:04.556Z,17.47
2022-09-15T03:37:30.945Z,17.97
2022-09-15T03:39:57.222Z,17.70
2022-09-15T03:42:23.477Z,17.63
2022-09-15T03:44:49.753Z,17.07
2022-09-15T03:47:16.039Z,17.20
2022-09-15T03:49:42.288Z,17.30
2022-09-15T03:52:08.532Z,18.20
2022-09-15T03:54:35.529Z,18.20
2022-09-15T03:57:01.911Z,43.80
2022-09-15T03:59:28.167Z,32.63
2022-09-15T04:01:54.457Z,17.80
2022-09-15T04:04:20.783Z,17.90
2022-09-15T04:06:47.122Z,18.50
2022-09-15T04:09:13.731Z,18.00
2022-09-15T04:11:40.932Z,18.77
2022-09-15T04:14:07.320Z,16.97
2022-09-15T04:16:33.910Z,18.97
2022-09-15T04:19:00.313Z,18.43
2022-09-15T04:21:26.836Z,18.57
2022-09-15T04:23:53.908Z,19.27
2022-09-15T04:26:23.200Z,18.37
2022-09-15T04:28:49.545Z,17.80
2022-09-15T04:31:16.836Z,18.87
2022-09-15T04:33:43.141Z,18.60
2022-09-15T04:36:11.735Z,19.20
2022-09-15T04:38:38.693Z,19.10
2022-09-15T04:41:05.511Z,19.07
2022-09-15T04:43:32.274Z,19.97
2022-09-15T04:45:58.630Z,19.90
2022-09-15T04:48:25.644Z,19.90
2022-09-15T04:50:52.271Z,20.47
2022-09-15T04:53:19.033Z,19.90
2022-09-15T04:55:45.308Z,20.67
2022-09-15T04:58:11.644Z,21.50
2022-09-15T05:00:43.399Z,20.90
2022-09-15T05:03:13.482Z,20.50
2022-09-15T05:05:40.501Z,19.47
2022-09-15T05:08:07.287Z,20.03
2022-09-15T05:10:33.644Z,18.90
2022-09-15T05:13:00.204Z,19.80
2022-09-15T05:15:26.577Z,21.40
2022-09-15T05:17:52.888Z,150.13
2022-09-15T05:20:19.203Z,58.10
2022-09-15T05:22:45.549Z,23.77
2022-09-15T05:25:11.771Z,21.37
2022-09-15T05:27:39.265Z,21.27
2022-09-15T05:30:34.837Z,21.60
2022-09-15T05:32:53.220Z,22.13
2022-09-15T05:35:19.863Z,22.07
2022-09-15T05:37:46.128Z,22.10
2022-09-15T05:40:12.390Z,21.17
2022-09-15T05:42:38.617Z,21.00
2022-09-15T05:45:05.019Z,21.63
2022-09-15T05:47:31.307Z,21.37
2022-09-15T05:49:57.594Z,21.00
2022-09-15T05:52:23.856Z,33.07
2022-09-15T05:54:50.095Z,29.70
2022-09-15T05:57:16.401Z,21.77
2022-09-15T05:59:43.871Z,20.00
2022-09-15T06:02:11.447Z,21.17
2022-09-15T06:04:37.838Z,21.00
2022-09-15T06:07:04.113Z,21.13
2022-09-15T06:09:30.462Z,21.23
2022-09-15T06:11:56.760Z,20.00
2022-09-15T06:14:22.995Z,20.23
2022-09-15T06:16:49.273Z,21.00
2022-09-15T06:19:15.573Z,19.00
2022-09-15T06:21:41.938Z,20.83
2022-09-15T06:24:12.480Z,23.40
2022-09-15T06:26:38.830Z,20.13
2022-09-15T06:29:05.769Z,19.20
2022-09-15T06:31:33.394Z,20.23
2022-09-15T06:34:05.279Z,20.77
2022-09-15T06:36:31.751Z,30.47
2022-09-15T06:38:58.601Z,21.33
2022-09-15T06:41:24.979Z,20.07
2022-09-15T06:43:52.039Z,18.80
2022-09-15T06:46:19.966Z,18.40
2022-09-15T06:48:48.554Z,17.87
2022-09-15T06:51:16.943Z,17.47
2022-09-15T06:53:44.042Z,17.43
2022-09-15T06:56:13.685Z,16.53
2022-09-15T06:58:40.876Z,15.37
2022-09-15T07:01:14.648Z,16.37
2022-09-15T07:03:42.553Z,15.37
2022-09-15T07:06:09.898Z,14.93
2022-09-15T07:08:36.185Z,14.23
2022-09-15T07:11:09.857Z,15.20
2022-09-15T07:13:36.288Z,13.43
2022-09-15T07:16:03.968Z,13.13
2022-09-15T07:18:30.778Z,12.63
2022-09-15T07:21:00.927Z,12.60
2022-09-15T07:23:27.629Z,12.00
2022-09-15T07:26:04.399Z,104.93
2022-09-15T07:28:31.078Z,13.23
2022-09-15T07:30:57.400Z,11.30
2022-09-15T07:33:23.697Z,10.20
2022-09-15T07:35:50.020Z,10.57
2022-09-15T07:38:16.312Z,10.63
2022-09-15T07:40:42.606Z,10.70
2022-09-15T07:43:08.879Z,11.33
2022-09-15T07:45:36.054Z,12.17
2022-09-15T07:48:02.588Z,11.10
2022-09-15T07:50:28.885Z,10.17
2022-09-15T07:52:55.902Z,10.40
2022-09-15T07:55:22.497Z,10.97
2022-09-15T07:57:56.479Z,11.07
2022-09-15T08:00:22.841Z,11.20
2022-09-15T08:02:49.144Z,10.53
2022-09-15T08:05:15.534Z,10.30
2022-09-15T08:07:41.789Z,10.70
2022-09-15T08:10:09.885Z,10.50
2022-09-15T08:12:36.539Z,10.37
2022-09-15T08:15:03.518Z,10.30
2022-09-15T08:17:29.894Z,9.90
2022-09-15T08:19:56.212Z,9.43
2022-09-15T08:22:22.577Z,9.73
2022-09-15T08:24:48.845Z,9.53
2022-09-15T08:27:15.163Z,9.00
2022-09-15T08:29:41.555Z,9.73
2022-09-15T08:32:07.830Z,10.00
2022-09-15T08:34:34.215Z,10.00
2022-09-15T08:37:00.446Z,8.93
2022-09-15T08:39:26.834Z,9.83
2022-09-15T08:41:53.735Z,8.30
2022-09-15T08:44:23.087Z,8.70
2022-09-15T08:46:49.409Z,8.97
2022-09-15T08:49:35.606Z,8.33
2022-09-15T08:52:09.982Z,8.87
2022-09-15T08:54:37.947Z,8.20
2022-09-15T08:57:04.872Z,12.70
2022-09-15T08:59:34.989Z,11.17
2022-09-15T09:02:07.547Z,10.10
2022-09-15T09:04:49.703Z,10.83
2022-09-15T09:07:19.081Z,10.57
2022-09-15T09:09:49.253Z,10.30
2022-09-15T09:12:18.552Z,9.67
2022-09-15T09:14:49.053Z,9.57
2022-09-15T09:17:20.576Z,9.60
2022-09-15T09:20:05.643Z,9.80
2022-09-15T09:22:34.989Z,9.23
2022-09-15T09:25:11.596Z,9.53
2022-09-15T09:27:39.607Z,9.13
2022-09-15T09:30:12.276Z,12.50
2022-09-15T09:32:57.041Z,16.47
2022-09-15T09:35:41.797Z,9.70
2022-09-15T09:38:12.459Z,8.13
2022-09-15T09:40:41.325Z,8.83
2022-09-15T09:43:07.944Z,6.70
2022-09-15T09:45:34.249Z,6.87
2022-09-15T09:48:11.753Z,6.77
2022-09-15T09:50:39.466Z,41.60
2022-09-15T09:53:17.943Z,8.50
2022-09-15T09:55:45.834Z,8.53
2022-09-15T09:58:14.459Z,7.57
2022-09-15T10:00:41.117Z,8.67
2022-09-15T10:03:11.200Z,8.10
2022-09-15T10:05:37.642Z,7.53
2022-09-15T10:08:03.981Z,7.00
2022-09-15T10:10:32.301Z,6.27
2022-09-15T10:13:01.917Z,7.93
2022-09-15T10:15:29.897Z,7.93
2022-09-15T10:17:56.640Z,7.80
2022-09-15T10:20:28.157Z,7.10
2022-09-15T10:23:06.877Z,6.80
2022-09-15T10:25:59.434Z,5.93
2022-09-15T10:28:27.131Z,5.80
2022-09-15T10:31:15.920Z,5.67
2022-09-15T10:33:45.578Z,6.40
2022-09-15T10:36:16.591Z,5.77
2022-09-15T10:38:42.907Z,4.80
2022-09-15T10:41:17.059Z,5.40
2022-09-15T10:43:46.311Z,5.20
2022-09-15T10:46:13.959Z,4.50
2022-09-15T10:48:40.323Z,4.30
2022-09-15T10:51:09.642Z,4.50
2022-09-15T10:54:02.273Z,6.27
2022-09-15T10:56:38.714Z,4.73
2022-09-15T10:59:25.219Z,5.13
2022-09-15T11:02:10.482Z,5.90
2022-09-15T11:04:36.880Z,5.90
2022-09-15T11:07:03.147Z,5.77
2022-09-15T11:09:33.741Z,4.83
2022-09-15T11:12:06.436Z,4.57
2022-09-15T11:14:39.070Z,5.43
2022-09-15T11:17:11.504Z,4.07
2022-09-15T11:19:43.842Z,3.73
2022-09-15T11:22:13.284Z,3.37
2022-09-15T11:24:47.961Z,3.13
2022-09-15T11:27:14.316Z,3.07
2022-09-15T11:29:46.716Z,3.30
2022-09-15T11:32:15.848Z,3.00
2022-09-15T11:34:47.012Z,3.90
2022-09-15T11:37:17.117Z,3.70
2022-09-15T11:39:53.061Z,3.63
2022-09-15T11:42:25.580Z,3.03
2022-09-15T11:44:51.882Z,2.90
2022-09-15T11:47:30.807Z,2.33
2022-09-15T11:50:00.427Z,2.87
2022-09-15T11:52:45.496Z,2.60
2022-09-15T11:55:18.212Z,2.67
2022-09-15T11:57:47.475Z,3.63
2022-09-15T12:00:14.662Z,3.50
2022-09-15T12:02:43.963Z,2.20
2022-09-15T12:05:19.697Z,1.83
2022-09-15T12:07:56.558Z,2.07
2022-09-15T12:10:30.656Z,2.27
2022-09-15T12:12:57.768Z,2.30
2022-09-15T12:15:27.358Z,2.40
2022-09-15T12:17:56.851Z,2.30
2022-09-15T12:20:35.705Z,2.60
2022-09-15T12:23:04.752Z,2.37
2022-09-15T12:25:35.711Z,2.20
2022-09-15T12:28:21.034Z,2.27
2022-09-15T12:30:48.172Z,2.40
2022-09-15T12:33:53.471Z,2.03
2022-09-15T12:36:36.894Z,2.00
2022-09-15T12:39:05.312Z,2.00
2022-09-15T12:41:31.984Z,2.27
2022-09-15T12:44:00.589Z,2.43
2022-09-15T12:46:27.101Z,2.50
2022-09-15T12:48:57.539Z,2.20
2022-09-15T12:51:26.229Z,2.20
2022-09-15T12:54:04.409Z,2.17
2022-09-15T12:56:31.548Z,2.00
2022-09-15T12:59:06.500Z,1.73
2022-09-15T13:01:49.630Z,1.87
2022-09-15T13:04:27.793Z,1.87
2022-09-15T13:07:12.904Z,2.00
2022-09-15T13:09:43.937Z,2.20
2022-09-15T13:12:12.246Z,2.37
2022-09-15T13:14:41.899Z,2.20
2022-09-15T13:17:17.056Z,2.10
2022-09-15T13:19:46.603Z,2.43
2022-09-15T13:22:27.383Z,2.03
2022-09-15T13:24:59.111Z,5.57
2022-09-15T13:27:32.199Z,2.03
2022-09-15T13:30:07.519Z,2.10
2022-09-15T13:32:52.807Z,1.63
2022-09-15T13:35:27.309Z,1.90
2022-09-15T13:38:07.837Z,1.80
2022-09-15T13:40:57.620Z,1.80
2022-09-15T13:43:42.389Z,1.53
2022-09-15T13:46:14.899Z,1.77
2022-09-15T13:48:50.028Z,2.10
2022-09-15T13:51:27.935Z,2.03
2022-09-15T13:54:01.279Z,1.80
2022-09-15T13:56:27.637Z,1.90
2022-09-15T13:59:00.260Z,1.73
2022-09-15T14:01:34.053Z,1.80
2022-09-15T14:04:06.487Z,2.20
2022-09-15T14:06:37.630Z,1.87
2022-09-15T14:09:09.483Z,1.83
2022-09-15T14:11:36.805Z,2.17
2022-09-15T14:14:06.421Z,1.60
2022-09-15T14:16:34.405Z,2.00
2022-09-15T14:19:01.538Z,1.67
2022-09-15T14:21:29.290Z,1.73
2022-09-15T14:23:56.797Z,1.80
2022-09-15T14:26:24.544Z,1.93
2022-09-15T14:28:58.528Z,1.40
2022-09-15T14:31:33.404Z,1.60
2022-09-15T14:34:00.603Z,1.77
2022-09-15T14:36:35.961Z,1.77
2022-09-15T14:39:11.269Z,1.50
2022-09-15T14:41:43.091Z,1.60
2022-09-15T14:47:26.149Z,1.77
2022-09-15T14:50:05.741Z,1.30
2022-09-15T14:52:35.389Z,1.57
2022-09-15T14:55:03.172Z,1.33
2022-09-15T14:57:31.807Z,1.30
2022-09-15T15:00:00.816Z,1.10
2022-09-15T15:02:30.259Z,1.40
2022-09-15T15:05:01.126Z,1.60
2022-09-15T15:07:32.014Z,1.23
2022-09-15T15:10:03.533Z,1.43
2022-09-15T15:12:43.254Z,1.30
2022-09-15T15:15:13.522Z,1.50
2022-09-15T15:17:44.456Z,1.50
2022-09-15T15:20:10.653Z,6.50
2022-09-15T15:22:37.605Z,3.57
2022-09-15T15:25:20.790Z,1.50
2022-09-15T15:27:56.849Z,1.60
2022-09-15T15:30:32.156Z,1.80
2022-09-15T15:33:02.843Z,1.60
2022-09-15T15:35:29.929Z,1.40
2022-09-15T15:38:00.892Z,1.67
2022-09-15T15:40:27.338Z,1.43
2022-09-15T15:42:57.864Z,1.23
2022-09-15T15:45:27.809Z,1.60
2022-09-15T15:47:54.092Z,1.30
2022-09-15T15:50:22.162Z,1.43
2022-09-15T15:52:49.169Z,1.33
2022-09-15T15:55:16.941Z,1.60
2022-09-15T15:57:43.797Z,1.70
2022-09-15T16:00:28.751Z,1.80
2022-09-15T16:02:55.570Z,1.77
2022-09-15T16:05:24.962Z,1.40
2022-09-15T16:07:51.794Z,1.63
2022-09-15T16:10:19.013Z,1.60
2022-09-15T16:12:45.917Z,1.50
2022-09-15T16:15:19.264Z,1.60
2022-09-15T16:17:47.033Z,1.17
2022-09-15T16:20:15.805Z,1.40
2022-09-15T16:22:42.459Z,1.20
2022-09-15T16:25:30.796Z,1.53
2022-09-15T16:27:57.111Z,1.37
2022-09-15T16:30:23.331Z,20.23
2022-09-15T16:32:49.557Z,8.03
2022-09-15T16:35:19.759Z,1.40
2022-09-15T16:37:46.033Z,1.77
2022-09-15T16:40:12.314Z,1.60
2022-09-15T16:42:38.642Z,1.50
2022-09-15T16:45:14.032Z,1.63
2022-09-15T16:47:40.330Z,1.50
2022-09-15T16:50:06.675Z,1.40
2022-09-15T16:52:32.967Z,1.50
2022-09-15T16:54:59.207Z,1.50
2022-09-15T16:57:25.480Z,1.50
2022-09-15T16:59:51.708Z,1.50
2022-09-15T17:02:18.850Z,1.80
2022-09-15T17:04:45.169Z,1.30
2022-09-15T17:07:11.396Z,1.40
2022-09-15T17:09:37.620Z,1.70
2022-09-15T17:12:04.560Z,1.53
2022-09-15T17:14:31.060Z,1.50
2022-09-15T17:16:57.504Z,1.30
2022-09-15T17:19:23.719Z,1.40
2022-09-15T17:21:50.225Z,1.50
2022-09-15T17:24:17.376Z,1.67
2022-09-15T17:26:43.609Z,1.47
2022-09-15T17:29:09.817Z,1.60
2022-09-15T17:31:36.095Z,2.23
2022-09-15T17:34:02.576Z,1.70
2022-09-15T17:36:28.862Z,2.00
2022-09-15T17:38:55.641Z,1.60
2022-09-15T17:41:24.551Z,1.50
2022-09-15T17:43:51.305Z,1.50
2022-09-15T17:46:17.538Z,1.40
2022-09-15T17:48:43.836Z,1.40
2022-09-15T17:51:14.111Z,1.27
2022-09-15T17:53:40.368Z,1.60
2022-09-15T17:56:06.709Z,1.43
2022-09-15T17:58:33.290Z,1.37
2022-09-15T18:01:00.049Z,1.70
2022-09-15T18:03:31.041Z,1.43
2022-09-15T18:05:58.483Z,1.40
2022-09-15T18:08:25.365Z,1.53
2022-09-15T18:10:51.648Z,1.50
2022-09-15T18:13:19.744Z,1.60
2022-09-15T18:15:46.526Z,1.30
2022-09-15T18:18:14.611Z,1.30
2022-09-15T18:20:41.164Z,1.43
2022-09-15T18:23:10.352Z,2.10
2022-09-15T18:25:36.789Z,1.37
2022-09-15T18:28:03.826Z,1.40
2022-09-15T18:30:34.670Z,1.50
2022-09-15T18:33:00.913Z,1.37
2022-09-15T18:35:27.153Z,1.43
2022-09-15T18:37:57.788Z,1.40
2022-09-15T18:40:24.768Z,1.60
2022-09-15T18:42:51.561Z,2.03
2022-09-15T18:45:18.587Z,10.00
2022-09-15T18:47:48.992Z,3.47
2022-09-15T18:50:17.483Z,1.57
2022-09-15T18:52:43.897Z,1.47
2022-09-15T18:55:12.496Z,1.90
2022-09-15T18:57:39.662Z,1.30
2022-09-15T19:00:08.070Z,1.30
2022-09-15T19:02:34.402Z,1.30
2022-09-15T19:05:00.711Z,1.87
2022-09-15T19:07:28.505Z,1.47
2022-09-15T19:09:56.755Z,1.40
2022-09-15T19:12:23.157Z,1.20
2022-09-15T19:15:11.651Z,1.00
2022-09-15T19:17:38.483Z,1.40
2022-09-15T19:20:06.672Z,1.20
2022-09-15T19:22:33.234Z,1.40
2022-09-15T19:25:00.629Z,1.27
2022-09-15T19:27:38.190Z,1.30
2022-09-15T19:30:04.898Z,1.23
2022-09-15T19:32:32.505Z,1.30
2022-09-15T19:34:59.984Z,1.50
2022-09-15T19:37:26.279Z,1.07
2022-09-15T19:39:52.549Z,1.67
2022-09-15T19:42:18.898Z,1.13
2022-09-15T19:44:45.868Z,1.20
2022-09-15T19:47:12.140Z,1.30
2022-09-15T19:49:38.622Z,1.10
2022-09-15T19:52:06.207Z,1.07
2022-09-15T19:54:32.567Z,1.20
2022-09-15T19:56:58.828Z,1.20
2022-09-15T19:59:30.172Z,1.13
2022-09-15T20:01:57.469Z,1.23
2022-09-15T20:04:23.991Z,1.27
2022-09-15T20:06:50.325Z,1.40
2022-09-15T20:09:16.928Z,1.10
2022-09-15T20:11:43.185Z,1.13
2022-09-15T20:14:09.471Z,1.40
2022-09-15T20:16:36.118Z,1.20
2022-09-15T20:19:03.904Z,1.20
2022-09-15T20:21:49.286Z,1.23
2022-09-15T20:24:16.727Z,1.13
2022-09-15T20:26:42.988Z,1.47
2022-09-15T20:29:10.084Z,1.20
2022-09-15T20:31:36.323Z,1.47
2022-09-15T20:34:02.638Z,1.40
2022-09-15T20:36:30.400Z,1.10
2022-09-15T20:38:56.785Z,1.30
2022-09-15T20:41:24.016Z,1.40
2022-09-15T20:43:50.980Z,1.60
2022-09-15T20:46:18.832Z,1.33
2022-09-15T20:48:46.407Z,1.50
2022-09-15T20:51:20.615Z,1.30
2022-09-15T20:53:48.127Z,1.23
2022-09-15T20:56:15.713Z,1.57
2022-09-15T20:58:42.344Z,1.37
2022-09-15T21:01:19.951Z,1.33
2022-09-15T21:03:47.699Z,1.40
2022-09-15T21:06:15.469Z,1.67
2022-09-15T21:08:41.891Z,1.37
2022-09-15T21:11:13.309Z,1.40
2022-09-15T21:13:40.257Z,1.20
2022-09-15T21:16:16.488Z,1.20
2022-09-15T21:18:43.324Z,2.10
2022-09-15T21:21:11.717Z,1.40
2022-09-15T21:23:40.821Z,33.77
2022-09-15T21:26:08.517Z,7.47
2022-09-15T21:28:35.325Z,1.60
2022-09-15T21:31:08.649Z,1.33
2022-09-15T21:33:35.847Z,1.20
2022-09-15T21:36:06.221Z,1.67
2022-09-15T21:38:33.404Z,1.77
2022-09-15T21:40:59.853Z,1.50
2022-09-15T21:43:30.181Z,1.40
2022-09-15T21:45:57.025Z,1.53
2022-09-15T21:48:23.516Z,1.40
2022-09-15T21:50:50.880Z,1.37
2022-09-15T21:53:17.607Z,1.27
2022-09-15T21:55:43.871Z,1.20
2022-09-15T21:58:10.114Z,1.30
2022-09-15T22:00:36.741Z,1.30
2022-09-15T22:03:02.992Z,1.40
2022-09-15T22:05:29.643Z,1.43
2022-09-15T22:07:55.886Z,1.53
2022-09-15T22:10:22.149Z,1.27
2022-09-15T22:12:48.452Z,1.67
2022-09-15T22:15:15.582Z,1.33
2022-09-15T22:17:42.205Z,1.50
2022-09-15T22:20:09.275Z,1.50
2022-09-15T22:22:35.517Z,1.40
2022-09-15T22:25:01.794Z,1.23
2022-09-15T22:27:28.029Z,1.53
2022-09-15T22:29:54.242Z,1.30
2022-09-15T22:32:20.554Z,2.00
2022-09-15T22:34:46.879Z,1.20
2022-09-15T22:37:13.137Z,1.30
2022-09-15T22:39:58.029Z,1.60
2022-09-15T22:42:25.044Z,1.43
2022-09-15T22:44:51.376Z,1.33
2022-09-15T22:47:17.614Z,1.50
2022-09-15T22:49:43.821Z,1.53
2022-09-15T22:52:10.122Z,1.30
2022-09-15T22:54:36.350Z,1.33
2022-09-15T22:57:02.853Z,1.47
2022-09-15T22:59:29.417Z,1.50
2022-09-15T23:01:55.711Z,1.40
2022-09-15T23:04:21.974Z,1.50
2022-09-15T23:06:49.024Z,1.50
2022-09-15T23:09:15.488Z,1.60
2022-09-15T23:11:41.818Z,1.47
2022-09-15T23:14:12.136Z,1.30
2022-09-15T23:16:38.487Z,1.30
2022-09-15T23:19:05.185Z,1.50
2022-09-15T23:21:31.908Z,1.30
2022-09-15T23:23:59.120Z,1.40
2022-09-15T23:26:25.422Z,1.40
2022-09-15T23:28:51.673Z,1.53
2022-09-15T23:31:18.466Z,1.30
2022-09-15T23:33:45.147Z,1.57
2022-09-15T23:36:12.783Z,1.27
2022-09-15T23:38:39.855Z,1.40
2022-09-15T23:41:06.718Z,1.10
2022-09-15T23:43:33.245Z,1.17
2022-09-15T23:46:00.212Z,1.23
2022-09-15T23:48:26.694Z,1.23
2022-09-15T23:50:53.024Z,1.50
2022-09-15T23:53:19.432Z,1.30
2022-09-15T23:55:45.906Z,1.20
2022-09-15T23:58:12.145Z,1.50
